Time;durP1;ratioP1;P1;durP2;ratioP2;P2;SDS_P1;SDS_P2;PMS_P1;PMS_P2;Temp;Humidity;BMP_temperature;BMP_pressure;BME280_temperature;BME280_humidity;BME280_pressure;Samples;Min_cycle;Max_cycle;Signal;HPM_P1;HPM_P2
2023/03/07 00:00:04;;;;;;;43.80;25.75;;;;;;;;;;4976966;28;20027;-58
2023/03/07 00:02:30;;;;;;;43.67;26.25;;;;;;;;;;4977251;28;20063;-58
2023/03/07 00:04:57;;;;;;;39.30;25.77;;;;;;;;;;4977321;28;20121;-57
2023/03/07 00:07:22;;;;;;;44.53;28.40;;;;;;;;;;4976951;28;20491;-58
2023/03/07 00:09:47;;;;;;;51.53;32.33;;;;;;;;;;4959971;28;20042;-58
2023/03/07 00:12:12;;;;;;;71.53;48.00;;;;;;;;;;4977010;28;20035;-58
2023/03/07 00:14:38;;;;;;;57.67;38.40;;;;;;;;;;4959654;28;20081;-58
2023/03/07 00:17:03;;;;;;;47.85;30.00;;;;;;;;;;4976945;28;20049;-58
2023/03/07 00:19:28;;;;;;;40.50;26.75;;;;;;;;;;4976902;28;20047;-58
2023/03/07 00:21:54;;;;;;;44.85;29.15;;;;;;;;;;4977025;28;20038;-58
2023/03/07 00:24:19;;;;;;;49.53;33.33;;;;;;;;;;4976853;28;20031;-57
2023/03/07 00:26:44;;;;;;;41.70;26.25;;;;;;;;;;4959484;28;20591;-57
2023/03/07 00:29:10;;;;;;;45.83;26.13;;;;;;;;;;4976572;28;20037;-58
2023/03/07 00:31:35;;;;;;;45.90;28.92;;;;;;;;;;4976763;28;20043;-62
2023/03/07 00:34:01;;;;;;;48.08;32.60;;;;;;;;;;4959418;28;20037;-63
2023/03/07 00:36:26;;;;;;;50.67;31.45;;;;;;;;;;4959400;28;20399;-63
2023/03/07 00:38:53;;;;;;;51.40;30.48;;;;;;;;;;4959265;28;20039;-63
2023/03/07 00:41:19;;;;;;;47.08;28.98;;;;;;;;;;4959259;28;20059;-62
2023/03/07 00:43:45;;;;;;;46.20;28.98;;;;;;;;;;4975711;28;20507;-63
2023/03/07 00:46:11;;;;;;;42.65;27.85;;;;;;;;;;4959228;28;20509;-63
2023/03/07 00:48:37;;;;;;;73.78;45.75;;;;;;;;;;4959233;28;20043;-63
2023/03/07 00:51:04;;;;;;;94.07;57.88;;;;;;;;;;4942567;28;20513;-63
2023/03/07 00:53:29;;;;;;;66.85;40.65;;;;;;;;;;4958726;28;20118;-63
2023/03/07 00:56:02;;;;;;;49.50;30.35;;;;;;;;;;4958872;28;20464;-63
2023/03/07 00:58:30;;;;;;;44.42;28.17;;;;;;;;;;4958956;28;20043;-63
2023/03/07 01:00:55;;;;;;;52.63;31.48;;;;;;;;;;4976234;28;20433;-63
2023/03/07 01:03:21;;;;;;;53.67;29.83;;;;;;;;;;4958667;28;20062;-63
2023/03/07 01:05:47;;;;;;;48.25;30.25;;;;;;;;;;4958501;28;20035;-63
2023/03/07 01:08:13;;;;;;;48.42;28.27;;;;;;;;;;4958667;28;20030;-63
2023/03/07 01:10:39;;;;;;;45.75;26.05;;;;;;;;;;4958830;28;20043;-63
2023/03/07 01:13:04;;;;;;;45.22;27.08;;;;;;;;;;4958749;28;20038;-63
2023/03/07 01:15:30;;;;;;;47.22;27.55;;;;;;;;;;4958735;28;20086;-63
2023/03/07 01:17:55;;;;;;;42.05;25.75;;;;;;;;;;4976033;28;20034;-63
2023/03/07 01:20:21;;;;;;;41.13;24.77;;;;;;;;;;4958374;28;20591;-63
2023/03/07 01:22:46;;;;;;;42.40;25.08;;;;;;;;;;4975942;28;20074;-63
2023/03/07 01:25:12;;;;;;;44.78;26.98;;;;;;;;;;4975763;28;20042;-63
2023/03/07 01:27:38;;;;;;;45.05;27.48;;;;;;;;;;4958388;28;20045;-63
2023/03/07 01:30:08;;;;;;;44.13;26.98;;;;;;;;;;4958248;28;20035;-63
2023/03/07 01:32:35;;;;;;;45.70;27.00;;;;;;;;;;4958442;28;20039;-58
2023/03/07 01:35:01;;;;;;;44.22;26.30;;;;;;;;;;4958207;28;20030;-58
2023/03/07 01:37:26;;;;;;;45.65;27.75;;;;;;;;;;4957975;28;20421;-58
2023/03/07 01:39:52;;;;;;;41.92;25.20;;;;;;;;;;4942000;28;20022;-58
2023/03/07 01:42:18;;;;;;;36.40;24.00;;;;;;;;;;4957920;28;20042;-58
2023/03/07 01:44:56;;;;;;;43.00;27.52;;;;;;;;;;4958252;28;20054;-58
2023/03/07 01:47:22;;;;;;;42.40;25.73;;;;;;;;;;4958190;28;20050;-58
2023/03/07 01:49:51;;;;;;;49.80;30.75;;;;;;;;;;4958049;28;20050;-58
2023/03/07 01:52:17;;;;;;;50.85;32.58;;;;;;;;;;4957821;28;20042;-62
2023/03/07 01:54:49;;;;;;;45.38;30.80;;;;;;;;;;4957586;28;20479;-63
2023/03/07 01:57:18;;;;;;;52.42;34.05;;;;;;;;;;4957908;28;20034;-63
2023/03/07 01:59:45;;;;;;;41.58;25.80;;;;;;;;;;4975088;28;20031;-63
2023/03/07 02:02:13;;;;;;;39.53;22.80;;;;;;;;;;4957576;28;20053;-63
2023/03/07 02:04:41;;;;;;;36.22;22.52;;;;;;;;;;4975143;28;20086;-63
2023/03/07 02:07:09;;;;;;;38.08;22.15;;;;;;;;;;4957792;28;20038;-63
2023/03/07 02:09:35;;;;;;;37.13;22.13;;;;;;;;;;4941826;28;20475;-63
2023/03/07 02:12:01;;;;;;;39.67;22.58;;;;;;;;;;4975082;28;20034;-62
2023/03/07 02:14:27;;;;;;;41.47;24.80;;;;;;;;;;4957705;28;20081;-63
2023/03/07 02:16:52;;;;;;;47.95;27.05;;;;;;;;;;4975002;28;20043;-62
2023/03/07 02:19:23;;;;;;;44.53;25.27;;;;;;;;;;4957661;28;20027;-62
2023/03/07 02:21:58;;;;;;;48.40;26.38;;;;;;;;;;4957739;28;20035;-62
2023/03/07 02:24:27;;;;;;;51.58;28.13;;;;;;;;;;4957622;28;20046;-62
2023/03/07 02:26:53;;;;;;;52.65;27.60;;;;;;;;;;4974897;28;20703;-62
2023/03/07 02:29:19;;;;;;;49.05;26.02;;;;;;;;;;4957636;28;20047;-62
2023/03/07 02:31:45;;;;;;;51.33;26.45;;;;;;;;;;4957264;28;20042;-62
2023/03/07 02:34:22;;;;;;;47.28;25.60;;;;;;;;;;4957526;28;20349;-62
2023/03/07 02:36:53;;;;;;;49.85;25.42;;;;;;;;;;4957386;28;20187;-62
2023/03/07 02:39:22;;;;;;;47.20;25.38;;;;;;;;;;4957245;28;20375;-62
2023/03/07 02:41:52;;;;;;;41.50;23.77;;;;;;;;;;4957109;28;20046;-62
2023/03/07 02:44:24;;;;;;;39.20;23.55;;;;;;;;;;4974636;28;20039;-62
2023/03/07 02:46:49;;;;;;;37.50;23.55;;;;;;;;;;4974208;28;20376;-62
2023/03/07 02:49:16;;;;;;;41.47;23.88;;;;;;;;;;4956966;28;20065;-62
2023/03/07 02:51:42;;;;;;;41.22;24.95;;;;;;;;;;4982289;23;20051;-58
2023/03/07 02:54:08;;;;;;;37.53;23.00;;;;;;;;;;5028656;28;20037;-58
2023/03/07 02:56:38;;;;;;;34.85;21.70;;;;;;;;;;4996092;28;20088;-58
2023/03/07 02:59:04;;;;;;;36.15;22.77;;;;;;;;;;5012477;28;20133;-57
2023/03/07 03:01:34;;;;;;;35.53;22.85;;;;;;;;;;4996193;28;20069;-57
2023/03/07 03:03:59;;;;;;;38.72;23.10;;;;;;;;;;4979576;28;20038;-58
2023/03/07 03:06:24;;;;;;;36.03;21.67;;;;;;;;;;5014603;28;20046;-59
2023/03/07 03:08:50;;;;;;;36.88;21.35;;;;;;;;;;4999705;28;20065;-58
2023/03/07 03:11:15;;;;;;;37.30;21.80;;;;;;;;;;5017113;28;20056;-59
2023/03/07 03:13:41;;;;;;;33.47;21.58;;;;;;;;;;4999436;28;20041;-58
2023/03/07 03:16:06;;;;;;;34.75;21.20;;;;;;;;;;4999422;28;20118;-58
2023/03/07 03:18:32;;;;;;;32.83;20.58;;;;;;;;;;4999482;28;20104;-58
2023/03/07 03:20:58;;;;;;;35.85;20.95;;;;;;;;;;4999446;28;20413;-58
2023/03/07 03:23:25;;;;;;;33.40;21.38;;;;;;;;;;5016940;28;20037;-58
2023/03/07 03:26:03;;;;;;;35.15;21.25;;;;;;;;;;4983185;28;20117;-58
2023/03/07 03:28:30;;;;;;;36.10;22.23;;;;;;;;;;4999754;28;20115;-58
2023/03/07 03:31:00;;;;;;;32.78;21.30;;;;;;;;;;4998978;28;20347;-58
2023/03/07 03:33:26;;;;;;;35.67;21.67;;;;;;;;;;4999333;28;20355;-58
2023/03/07 03:35:52;;;;;;;35.22;22.95;;;;;;;;;;4999364;28;20038;-58
2023/03/07 03:38:17;;;;;;;36.42;22.85;;;;;;;;;;4999175;28;20038;-58
2023/03/07 03:40:43;;;;;;;38.80;23.23;;;;;;;;;;5016778;28;20030;-58
2023/03/07 03:43:08;;;;;;;34.83;21.65;;;;;;;;;;5016807;28;20514;-58
2023/03/07 03:45:34;;;;;;;33.63;21.08;;;;;;;;;;4999478;28;20046;-58
2023/03/07 03:47:59;;;;;;;37.78;22.25;;;;;;;;;;5016736;28;20057;-58
2023/03/07 03:50:25;;;;;;;36.65;21.40;;;;;;;;;;4998948;28;20069;-58
2023/03/07 03:52:50;;;;;;;32.90;21.20;;;;;;;;;;4998901;28;20041;-58
2023/03/07 03:55:15;;;;;;;34.10;21.60;;;;;;;;;;4999061;28;20471;-58
2023/03/07 03:57:41;;;;;;;33.85;21.33;;;;;;;;;;4998830;28;20041;-58
2023/03/07 04:00:08;;;;;;;33.20;22.17;;;;;;;;;;4998847;28;20030;-58
2023/03/07 04:02:37;;;;;;;34.67;21.30;;;;;;;;;;5016492;28;20382;-58
2023/03/07 04:05:04;;;;;;;33.28;20.50;;;;;;;;;;4998705;28;20033;-58
2023/03/07 04:07:29;;;;;;;28.23;18.77;;;;;;;;;;4998786;28;20037;-58
2023/03/07 04:09:54;;;;;;;29.85;18.20;;;;;;;;;;4998453;28;20026;-58
2023/03/07 04:12:20;;;;;;;30.80;18.95;;;;;;;;;;5016113;28;20034;-58
2023/03/07 04:14:46;;;;;;;28.85;18.30;;;;;;;;;;4998291;28;20042;-58
2023/03/07 04:17:11;;;;;;;29.45;17.63;;;;;;;;;;5016268;28;20153;-58
2023/03/07 04:19:37;;;;;;;32.38;20.40;;;;;;;;;;4998625;28;20081;-58
2023/03/07 04:22:04;;;;;;;34.05;21.60;;;;;;;;;;4998188;28;20478;-58
2023/03/07 04:24:30;;;;;;;39.83;23.88;;;;;;;;;;4998256;28;20045;-58
2023/03/07 04:26:55;;;;;;;34.75;21.38;;;;;;;;;;5015734;28;20197;-58
2023/03/07 04:29:20;;;;;;;26.23;17.50;;;;;;;;;;4998098;28;20462;-58
2023/03/07 04:31:53;;;;;;;26.58;17.92;;;;;;;;;;4997834;28;20512;-58
2023/03/07 04:34:18;;;;;;;29.08;18.75;;;;;;;;;;4998554;28;20042;-58
2023/03/07 04:36:44;;;;;;;27.65;18.02;;;;;;;;;;5015492;28;20091;-58
2023/03/07 04:39:11;;;;;;;27.55;17.33;;;;;;;;;;4982255;28;20037;-58
2023/03/07 04:41:36;;;;;;;28.10;18.63;;;;;;;;;;4998027;28;20473;-58
2023/03/07 04:44:10;;;;;;;28.75;19.10;;;;;;;;;;4999290;28;20030;-59
2023/03/07 04:46:35;;;;;;;32.08;20.88;;;;;;;;;;4997847;28;20496;-58
2023/03/07 04:49:01;;;;;;;29.75;19.63;;;;;;;;;;4997524;28;20088;-58
2023/03/07 04:51:26;;;;;;;38.78;26.48;;;;;;;;;;4993702;28;20049;-58
2023/03/07 04:53:52;;;;;;;34.90;23.88;;;;;;;;;;4994295;28;20058;-58
2023/03/07 04:56:17;;;;;;;30.45;20.85;;;;;;;;;;4995344;28;20038;-61
2023/03/07 04:58:44;;;;;;;28.30;19.25;;;;;;;;;;4993860;28;20039;-58
2023/03/07 05:01:10;;;;;;;25.95;18.00;;;;;;;;;;4994262;28;20040;-58
2023/03/07 05:03:36;;;;;;;28.10;19.55;;;;;;;;;;4994605;28;20489;-58
2023/03/07 05:06:03;;;;;;;28.05;18.75;;;;;;;;;;4993926;28;20117;-58
2023/03/07 05:08:29;;;;;;;24.42;17.73;;;;;;;;;;4995601;28;20046;-58
2023/03/07 05:10:54;;;;;;;25.98;18.38;;;;;;;;;;4994273;28;20141;-58
2023/03/07 05:13:20;;;;;;;25.67;18.27;;;;;;;;;;4994289;28;20030;-59
2023/03/07 05:15:53;;;;;;;26.83;17.83;;;;;;;;;;4993593;28;20041;-59
2023/03/07 05:18:20;;;;;;;25.40;18.02;;;;;;;;;;4993695;28;20030;-59
2023/03/07 05:20:46;;;;;;;27.52;17.63;;;;;;;;;;4994158;28;20062;-57
2023/03/07 05:23:12;;;;;;;27.00;18.73;;;;;;;;;;4977275;28;20475;-58
2023/03/07 05:25:38;;;;;;;30.90;18.90;;;;;;;;;;4992998;28;20030;-58
2023/03/07 05:28:03;;;;;;;28.95;18.58;;;;;;;;;;4994074;28;20038;-59
2023/03/07 05:30:28;;;;;;;30.67;18.35;;;;;;;;;;4993387;28;20414;-58
2023/03/07 05:32:54;;;;;;;29.92;20.75;;;;;;;;;;4976076;28;20039;-58
2023/03/07 05:35:23;;;;;;;34.63;22.40;;;;;;;;;;4994412;28;20058;-58
2023/03/07 05:37:49;;;;;;;37.90;25.25;;;;;;;;;;4976923;28;20038;-58
2023/03/07 05:40:15;;;;;;;42.03;27.17;;;;;;;;;;4993062;28;20121;-58
2023/03/07 05:42:44;;;;;;;37.90;23.50;;;;;;;;;;4976899;28;20145;-59
2023/03/07 05:45:10;;;;;;;30.75;19.00;;;;;;;;;;4994251;28;20523;-58
2023/03/07 05:47:36;;;;;;;29.20;19.23;;;;;;;;;;4991725;28;20055;-58
2023/03/07 05:50:01;;;;;;;26.70;17.73;;;;;;;;;;4974727;28;20042;-58
2023/03/07 05:52:27;;;;;;;28.17;18.05;;;;;;;;;;4992290;28;20042;-58
2023/03/07 05:54:53;;;;;;;27.73;18.55;;;;;;;;;;4992190;28;20370;-58
2023/03/07 05:57:18;;;;;;;28.42;19.17;;;;;;;;;;4992424;28;20026;-58
2023/03/07 05:59:44;;;;;;;27.27;19.10;;;;;;;;;;4992500;28;20035;-59
2023/03/07 06:02:09;;;;;;;30.05;19.00;;;;;;;;;;4994125;28;20483;-61
2023/03/07 06:04:34;;;;;;;32.33;20.48;;;;;;;;;;4993599;28;20034;-57
2023/03/07 06:07:00;;;;;;;31.58;20.15;;;;;;;;;;4992598;28;20045;-57
2023/03/07 06:09:26;;;;;;;34.42;21.67;;;;;;;;;;4992711;28;20166;-57
2023/03/07 06:11:53;;;;;;;34.33;21.42;;;;;;;;;;4992802;28;20045;-57
2023/03/07 06:14:19;;;;;;;32.35;19.52;;;;;;;;;;4992286;28;20371;-57
2023/03/07 06:16:44;;;;;;;30.58;18.60;;;;;;;;;;4994991;28;20045;-57
2023/03/07 06:19:10;;;;;;;29.83;18.83;;;;;;;;;;4993166;28;20074;-57
2023/03/07 06:21:36;;;;;;;37.08;22.17;;;;;;;;;;4993355;28;20046;-57
2023/03/07 06:24:01;;;;;;;40.22;24.35;;;;;;;;;;4992603;28;20105;-57
2023/03/07 06:26:27;;;;;;;36.53;22.75;;;;;;;;;;4992850;28;20073;-58
2023/03/07 06:28:53;;;;;;;35.90;22.30;;;;;;;;;;4993267;28;20093;-57
2023/03/07 06:31:20;;;;;;;32.08;20.48;;;;;;;;;;4992925;28;20034;-58
2023/03/07 06:33:46;;;;;;;31.45;19.85;;;;;;;;;;4993153;28;20466;-57
2023/03/07 06:36:14;;;;;;;29.05;18.35;;;;;;;;;;4993341;28;20064;-58
2023/03/07 06:38:41;;;;;;;30.13;19.67;;;;;;;;;;4992341;28;20031;-57
2023/03/07 06:41:06;;;;;;;33.05;21.17;;;;;;;;;;4993020;28;20376;-57
2023/03/07 06:43:33;;;;;;;34.83;21.45;;;;;;;;;;4996504;28;20417;-57
2023/03/07 06:45:58;;;;;;;30.08;20.67;;;;;;;;;;4980359;28;20061;-57
2023/03/07 06:48:27;;;;;;;28.73;19.98;;;;;;;;;;4995911;28;20097;-57
2023/03/07 06:50:52;;;;;;;29.10;18.50;;;;;;;;;;4995909;28;20038;-57
2023/03/07 06:53:18;;;;;;;28.77;19.35;;;;;;;;;;4997197;28;20042;-57
2023/03/07 06:55:48;;;;;;;32.58;22.27;;;;;;;;;;4996545;28;20073;-57
2023/03/07 06:58:13;;;;;;;37.73;27.03;;;;;;;;;;4998090;28;20066;-57
2023/03/07 07:00:39;;;;;;;38.25;28.48;;;;;;;;;;4996268;28;20294;-57
2023/03/07 07:03:04;;;;;;;44.92;30.23;;;;;;;;;;4996311;28;20106;-57
2023/03/07 07:05:29;;;;;;;40.22;28.00;;;;;;;;;;4996313;28;20084;-57
2023/03/07 07:07:54;;;;;;;37.42;26.73;;;;;;;;;;4996234;28;20037;-57
2023/03/07 07:10:20;;;;;;;33.88;22.20;;;;;;;;;;4996306;28;20371;-57
2023/03/07 07:12:45;;;;;;;35.55;22.67;;;;;;;;;;4979869;28;20045;-57
2023/03/07 07:15:11;;;;;;;30.52;19.90;;;;;;;;;;4996100;28;20057;-57
2023/03/07 07:17:37;;;;;;;31.13;19.67;;;;;;;;;;4997370;28;20042;-57
2023/03/07 07:20:25;;;;;;;28.52;18.52;;;;;;;;;;4996052;28;20057;-57
2023/03/07 07:22:52;;;;;;;18.08;12.90;;;;;;;;;;4996049;28;20406;-57
2023/03/07 07:25:18;;;;;;;18.83;12.68;;;;;;;;;;4995878;28;20513;-57
2023/03/07 07:27:43;;;;;;;24.33;15.48;;;;;;;;;;4996509;28;20042;-58
2023/03/07 07:30:09;;;;;;;28.40;17.58;;;;;;;;;;4995906;28;20564;-57
2023/03/07 07:32:35;;;;;;;25.13;17.73;;;;;;;;;;4979782;28;20042;-57
2023/03/07 07:35:02;;;;;;;21.63;13.43;;;;;;;;;;4995721;28;20030;-57
2023/03/07 07:37:29;;;;;;;26.30;16.80;;;;;;;;;;4995801;28;20035;-57
2023/03/07 07:39:54;;;;;;;21.17;13.90;;;;;;;;;;4997515;28;20129;-57
2023/03/07 07:42:19;;;;;;;20.27;14.10;;;;;;;;;;4996927;28;20038;-57
2023/03/07 07:44:59;;;;;;;13.63;9.38;;;;;;;;;;4995515;28;20042;-57
2023/03/07 07:47:24;;;;;;;11.65;9.57;;;;;;;;;;5014172;23;20612;-63
2023/03/07 07:49:49;;;;;;;13.98;10.02;;;;;;;;;;5040210;23;20560;-57
2023/03/07 07:52:15;;;;;;;18.83;12.07;;;;;;;;;;5015835;28;20088;-57
2023/03/07 07:54:41;;;;;;;10.88;8.18;;;;;;;;;;5016368;28;20071;-57
2023/03/07 07:57:06;;;;;;;11.60;8.68;;;;;;;;;;5016283;28;20113;-57
2023/03/07 07:59:33;;;;;;;12.20;9.38;;;;;;;;;;5009874;28;20036;-57
2023/03/07 08:02:00;;;;;;;12.13;8.27;;;;;;;;;;5031685;28;20483;-57
2023/03/07 08:04:25;;;;;;;9.60;7.88;;;;;;;;;;5025361;28;20026;-57
2023/03/07 08:06:51;;;;;;;10.23;7.47;;;;;;;;;;5016127;28;20406;-57
2023/03/07 08:09:16;;;;;;;8.77;5.78;;;;;;;;;;5016055;28;20402;-57
2023/03/07 08:11:42;;;;;;;11.20;7.65;;;;;;;;;;5015969;28;20049;-57
2023/03/07 08:14:07;;;;;;;10.23;6.53;;;;;;;;;;5015919;28;20034;-57
2023/03/07 08:16:32;;;;;;;7.28;6.25;;;;;;;;;;5015922;28;20038;-57
2023/03/07 08:18:59;;;;;;;8.20;6.93;;;;;;;;;;5016112;28;20021;-57
2023/03/07 08:21:24;;;;;;;10.52;8.50;;;;;;;;;;5015798;28;20052;-57
2023/03/07 08:23:50;;;;;;;8.82;7.47;;;;;;;;;;5016315;28;20037;-57
2023/03/07 08:26:16;;;;;;;9.10;7.45;;;;;;;;;;5024130;28;20038;-57
2023/03/07 08:28:42;;;;;;;8.15;6.43;;;;;;;;;;5016027;28;20084;-57
2023/03/07 08:31:13;;;;;;;7.03;5.55;;;;;;;;;;5015864;28;20088;-57
2023/03/07 08:33:38;;;;;;;8.55;5.93;;;;;;;;;;5016405;28;20371;-57
2023/03/07 08:36:04;;;;;;;5.50;4.90;;;;;;;;;;5013522;28;20044;-57
2023/03/07 08:38:30;;;;;;;10.80;7.07;;;;;;;;;;5015812;28;20386;-57
2023/03/07 08:40:59;;;;;;;8.25;6.57;;;;;;;;;;5015727;28;20108;-57
2023/03/07 08:43:26;;;;;;;9.10;5.85;;;;;;;;;;5008183;28;20042;-57
2023/03/07 08:45:52;;;;;;;9.25;7.55;;;;;;;;;;5015429;28;20168;-57
2023/03/07 08:48:19;;;;;;;7.45;6.38;;;;;;;;;;5007569;28;20053;-57
2023/03/07 08:50:45;;;;;;;7.90;5.88;;;;;;;;;;5015060;28;20397;-57
2023/03/07 08:53:12;;;;;;;7.13;5.40;;;;;;;;;;5015227;28;20045;-57
2023/03/07 08:55:37;;;;;;;8.32;5.82;;;;;;;;;;5015184;28;20084;-57
2023/03/07 08:58:02;;;;;;;6.60;5.40;;;;;;;;;;5015447;28;20034;-57
2023/03/07 09:00:28;;;;;;;9.27;4.60;;;;;;;;;;5015095;28;20085;-57
2023/03/07 09:02:53;;;;;;;7.28;5.35;;;;;;;;;;5015615;28;20056;-57
2023/03/07 09:05:19;;;;;;;5.97;4.50;;;;;;;;;;5014186;28;20521;-57
2023/03/07 09:07:44;;;;;;;7.40;5.35;;;;;;;;;;5014970;28;20445;-57
2023/03/07 09:10:10;;;;;;;7.38;6.15;;;;;;;;;;5014903;28;20034;-57
2023/03/07 09:12:35;;;;;;;7.80;6.47;;;;;;;;;;5008989;28;20042;-57
2023/03/07 09:15:01;;;;;;;6.78;5.47;;;;;;;;;;5015400;28;20084;-57
2023/03/07 09:17:26;;;;;;;9.05;6.45;;;;;;;;;;5007707;28;20469;-57
2023/03/07 09:19:51;;;;;;;7.80;5.80;;;;;;;;;;5015345;28;20026;-57
2023/03/07 09:22:16;;;;;;;6.72;4.75;;;;;;;;;;5014679;28;20474;-57
2023/03/07 09:24:42;;;;;;;7.28;5.55;;;;;;;;;;5014641;28;20069;-57
2023/03/07 09:27:07;;;;;;;5.25;3.58;;;;;;;;;;5015155;28;20038;-57
2023/03/07 09:29:32;;;;;;;1.55;1.45;;;;;;;;;;5015133;28;20072;-57
2023/03/07 09:32:00;;;;;;;3.28;2.97;;;;;;;;;;5014442;28;20038;-57
2023/03/07 09:34:26;;;;;;;6.38;5.18;;;;;;;;;;5014780;28;20490;-57
2023/03/07 09:36:51;;;;;;;1.95;1.50;;;;;;;;;;5010719;28;20066;-57
2023/03/07 09:39:16;;;;;;;3.17;2.80;;;;;;;;;;5014404;28;20376;-57
2023/03/07 09:41:52;;;;;;;3.72;3.33;;;;;;;;;;5014646;28;20030;-57
2023/03/07 09:44:17;;;;;;;1.73;1.63;;;;;;;;;;5006009;28;20033;-57
2023/03/07 09:47:12;;;;;;;7.85;5.47;;;;;;;;;;4986141;28;20092;-57
2023/03/07 09:49:37;;;;;;;8.05;5.82;;;;;;;;;;5008959;28;20148;-57
2023/03/07 09:52:07;;;;;;;4.82;3.72;;;;;;;;;;5014262;28;20547;-57
2023/03/07 09:54:38;;;;;;;3.22;2.95;;;;;;;;;;5014097;28;20085;-57
2023/03/07 09:57:04;;;;;;;5.82;4.32;;;;;;;;;;5014379;28;20057;-57
2023/03/07 09:59:38;;;;;;;6.78;5.22;;;;;;;;;;5023845;28;20034;-57
2023/03/07 10:02:09;;;;;;;9.25;6.95;;;;;;;;;;5014635;28;20042;-57
2023/03/07 10:04:42;;;;;;;9.27;6.18;;;;;;;;;;5014266;28;20049;-57
2023/03/07 10:07:08;;;;;;;9.93;6.78;;;;;;;;;;5013978;28;20080;-57
2023/03/07 10:09:34;;;;;;;6.03;3.88;;;;;;;;;;5014015;28;20057;-57
2023/03/07 10:12:09;;;;;;;9.30;7.65;;;;;;;;;;5013851;28;20037;-57
2023/03/07 10:14:46;;;;;;;2.70;2.50;;;;;;;;;;5024286;28;20130;-57
2023/03/07 10:17:14;;;;;;;7.95;5.93;;;;;;;;;;5014167;28;20092;-57
2023/03/07 10:19:48;;;;;;;8.10;6.53;;;;;;;;;;5014392;28;20117;-57
2023/03/07 10:22:18;;;;;;;5.22;3.63;;;;;;;;;;5014110;28;20104;-57
2023/03/07 10:24:56;;;;;;;3.22;2.78;;;;;;;;;;5014076;28;20050;-57
2023/03/07 10:27:25;;;;;;;3.67;3.35;;;;;;;;;;5014346;28;20115;-57
2023/03/07 10:29:52;;;;;;;4.05;3.63;;;;;;;;;;5013762;28;20041;-57
2023/03/07 10:32:38;;;;;;;5.75;4.55;;;;;;;;;;5013918;28;20038;-57
2023/03/07 10:35:03;;;;;;;6.38;5.18;;;;;;;;;;5013102;28;20042;-57
2023/03/07 10:37:49;;;;;;;7.50;6.50;;;;;;;;;;5013723;28;20041;-57
2023/03/07 10:40:17;;;;;;;0.80;0.80;;;;;;;;;;4996829;28;20050;-57
2023/03/07 10:42:42;;;;;;;3.70;3.38;;;;;;;;;;5013906;28;20100;-57
2023/03/07 10:45:11;;;;;;;11.93;4.95;;;;;;;;;;5013624;28;20038;-57
2023/03/07 10:47:36;;;;;;;5.38;4.82;;;;;;;;;;5013610;28;20034;-57
2023/03/07 10:50:05;;;;;;;3.60;2.75;;;;;;;;;;5013552;28;20473;-57
2023/03/07 10:52:33;;;;;;;8.60;5.22;;;;;;;;;;5008056;28;20034;-57
2023/03/07 10:55:17;;;;;;;2.70;2.00;;;;;;;;;;5029003;28;20121;-57
2023/03/07 10:57:43;;;;;;;6.85;5.82;;;;;;;;;;5013549;28;20490;-57
2023/03/07 11:00:13;;;;;;;6.50;4.65;;;;;;;;;;5013774;28;20040;-57
2023/03/07 11:02:44;;;;;;;7.32;5.30;;;;;;;;;;4992458;28;20041;-57
2023/03/07 11:05:29;;;;;;;3.65;3.25;;;;;;;;;;5013434;28;20482;-57
2023/03/07 11:07:55;;;;;;;5.32;4.72;;;;;;;;;;5013708;28;20038;-57
2023/03/07 11:10:23;;;;;;;3.20;2.92;;;;;;;;;;5013680;28;20128;-57
2023/03/07 11:12:49;;;;;;;4.05;2.90;;;;;;;;;;5013277;28;20042;-57
2023/03/07 11:15:18;;;;;;;4.28;3.80;;;;;;;;;;5013330;28;20371;-57
2023/03/07 11:17:44;;;;;;;5.28;3.95;;;;;;;;;;5024889;28;20129;-57
2023/03/07 11:20:36;;;;;;;7.20;5.38;;;;;;;;;;5013358;28;20118;-57
2023/03/07 11:23:18;;;;;;;1.50;1.40;;;;;;;;;;4975975;28;20471;-57
2023/03/07 11:25:43;;;;;;;6.68;4.88;;;;;;;;;;5013501;28;20046;-57
2023/03/07 11:28:24;;;;;;;3.88;3.30;;;;;;;;;;5015589;28;20037;-57
2023/03/07 11:30:53;;;;;;;7.70;5.50;;;;;;;;;;5017287;28;20030;-57
2023/03/07 11:33:26;;;;;;;10.75;5.68;;;;;;;;;;5016713;28;20034;-57
2023/03/07 11:36:06;;;;;;;6.25;5.40;;;;;;;;;;5016950;28;20490;-57
2023/03/07 11:38:35;;;;;;;6.00;3.95;;;;;;;;;;5017232;28;20038;-57
2023/03/07 11:41:29;;;;;;;5.93;4.35;;;;;;;;;;5016617;28;20466;-58
2023/03/07 11:44:13;;;;;;;6.90;4.82;;;;;;;;;;4914348;28;20052;-57
2023/03/07 11:46:41;;;;;;;6.43;4.35;;;;;;;;;;5016785;28;20046;-57
2023/03/07 11:49:06;;;;;;;5.68;4.43;;;;;;;;;;5016742;28;20037;-57
2023/03/07 11:51:52;;;;;;;1.85;1.23;;;;;;;;;;5016170;28;20038;-57
2023/03/07 11:54:28;;;;;;;4.90;3.65;;;;;;;;;;5016611;28;20113;-57
2023/03/07 11:56:56;;;;;;;4.47;3.85;;;;;;;;;;5016600;28;20493;-57
2023/03/07 11:59:38;;;;;;;4.78;2.80;;;;;;;;;;5016260;28;20030;-57
2023/03/07 12:02:11;;;;;;;1.50;1.40;;;;;;;;;;5016513;28;20121;-57
2023/03/07 12:04:36;;;;;;;3.17;2.72;;;;;;;;;;5016166;28;20138;-57
2023/03/07 12:07:20;;;;;;;5.10;4.25;;;;;;;;;;5016403;28;20533;-57
2023/03/07 12:09:55;;;;;;;5.75;4.75;;;;;;;;;;5011564;28;20128;-57
2023/03/07 12:12:38;;;;;;;6.47;5.00;;;;;;;;;;5016243;28;20138;-57
2023/03/07 12:15:04;;;;;;;2.30;1.77;;;;;;;;;;5016530;28;20230;-57
2023/03/07 12:17:38;;;;;;;1.60;1.50;;;;;;;;;;5015947;28;20129;-57
2023/03/07 12:20:20;;;;;;;4.65;3.92;;;;;;;;;;5016160;28;20073;-57
2023/03/07 12:23:06;;;;;;;2.90;2.55;;;;;;;;;;5016347;28;20128;-57
2023/03/07 12:25:50;;;;;;;5.82;3.92;;;;;;;;;;5008545;28;20049;-57
2023/03/07 12:28:25;;;;;;;7.82;4.03;;;;;;;;;;5016031;28;20049;-57
2023/03/07 12:31:09;;;;;;;7.15;4.85;;;;;;;;;;5028259;28;20042;-57
2023/03/07 12:33:50;;;;;;;13.43;4.95;;;;;;;;;;5010251;28;20069;-57
2023/03/07 12:36:15;;;;;;;;;;;;;;;;;;5016568;28;20046;-57
2023/03/07 12:38:46;;;;;;;4.67;3.97;;;;;;;;;;5014433;28;20015;-57
2023/03/07 12:41:30;;;;;;;3.60;2.78;;;;;;;;;;5006403;28;20283;-57
2023/03/07 12:44:02;;;;;;;4.65;2.80;;;;;;;;;;5015729;28;20069;-57
2023/03/07 12:46:27;;;;;;;7.00;4.88;;;;;;;;;;5015365;28;20081;-57
2023/03/07 12:48:55;;;;;;;4.30;3.80;;;;;;;;;;5045017;23;20100;-63
2023/03/07 12:51:26;;;;;;;5.70;4.95;;;;;;;;;;5015280;23;20054;-63
2023/03/07 12:54:02;;;;;;;7.63;5.45;;;;;;;;;;4993294;28;20040;-57
2023/03/07 12:56:48;;;;;;;9.13;5.93;;;;;;;;;;4995879;28;20050;-57
2023/03/07 12:59:14;;;;;;;7.53;3.75;;;;;;;;;;4995549;28;20109;-57
2023/03/07 13:01:46;;;;;;;3.70;2.15;;;;;;;;;;4995800;28;20084;-57
2023/03/07 13:04:11;;;;;;;5.78;3.47;;;;;;;;;;4995748;28;20049;-57
2023/03/07 13:06:40;;;;;;;1.08;1.08;;;;;;;;;;4977995;28;20129;-57
2023/03/07 13:09:06;;;;;;;3.92;3.17;;;;;;;;;;4995665;28;20046;-57
2023/03/07 13:11:33;;;;;;;4.07;3.63;;;;;;;;;;4995262;28;20027;-57
2023/03/07 13:14:00;;;;;;;7.57;5.15;;;;;;;;;;4995284;28;20034;-57
2023/03/07 13:16:44;;;;;;;2.40;2.05;;;;;;;;;;4995255;28;20018;-57
2023/03/07 13:19:28;;;;;;;5.30;4.13;;;;;;;;;;4995442;28;20065;-57
2023/03/07 13:21:56;;;;;;;7.72;5.00;;;;;;;;;;4995418;28;20467;-57
2023/03/07 13:24:30;;;;;;;2.92;2.17;;;;;;;;;;4995614;28;20038;-57
2023/03/07 13:26:56;;;;;;;6.80;4.20;;;;;;;;;;4995307;28;20046;-57
2023/03/07 13:29:40;;;;;;;5.07;2.65;;;;;;;;;;4995550;28;20042;-57
2023/03/07 13:32:25;;;;;;;7.72;6.15;;;;;;;;;;4995175;28;20042;-57
2023/03/07 13:34:51;;;;;;;1.67;1.58;;;;;;;;;;4994797;28;20031;-57
2023/03/07 13:37:35;;;;;;;7.55;5.03;;;;;;;;;;4995139;28;20045;-57
2023/03/07 13:40:05;;;;;;;8.05;5.53;;;;;;;;;;4995098;28;20410;-57
2023/03/07 13:42:44;;;;;;;13.90;5.15;;;;;;;;;;4995037;28;20038;-57
2023/03/07 13:45:28;;;;;;;12.10;5.63;;;;;;;;;;4994992;28;20057;-57
2023/03/07 13:47:53;;;;;;;3.35;2.50;;;;;;;;;;4995225;28;20045;-57
2023/03/07 13:50:35;;;;;;;1.58;1.42;;;;;;;;;;4994276;28;20459;-57
2023/03/07 13:53:15;;;;;;;5.20;2.35;;;;;;;;;;4994351;28;20479;-57
2023/03/07 13:55:45;;;;;;;10.13;6.10;;;;;;;;;;4977097;28;20466;-57
2023/03/07 13:58:37;;;;;;;5.87;4.23;;;;;;;;;;4994541;28;20046;-57
2023/03/07 14:01:03;;;;;;;7.47;4.68;;;;;;;;;;4964488;28;20285;-57
2023/03/07 14:03:29;;;;;;;11.75;6.15;;;;;;;;;;4977049;28;20034;-57
2023/03/07 14:05:59;;;;;;;6.88;5.72;;;;;;;;;;4994399;28;20475;-57
2023/03/07 14:08:26;;;;;;;13.10;7.45;;;;;;;;;;4994939;28;20122;-57
2023/03/07 14:10:52;;;;;;;13.25;7.80;;;;;;;;;;4994273;28;20069;-57
2023/03/07 14:13:23;;;;;;;13.32;7.88;;;;;;;;;;4994316;28;20068;-57
2023/03/07 14:16:07;;;;;;;10.88;6.30;;;;;;;;;;4976921;28;20053;-57
2023/03/07 14:18:44;;;;;;;11.10;6.13;;;;;;;;;;4977203;28;20048;-57
2023/03/07 14:21:28;;;;;;;7.18;5.30;;;;;;;;;;4994523;28;20045;-57
2023/03/07 14:23:58;;;;;;;9.13;5.43;;;;;;;;;;4977177;28;20046;-57
2023/03/07 14:26:26;;;;;;;8.95;5.28;;;;;;;;;;4994230;28;20046;-57
2023/03/07 14:28:59;;;;;;;1.05;0.73;;;;;;;;;;4992129;28;20046;-57
2023/03/07 14:31:25;;;;;;;10.50;5.38;;;;;;;;;;4993851;28;20046;-57
2023/03/07 14:33:51;;;;;;;6.22;3.50;;;;;;;;;;4993969;28;20026;-57
2023/03/07 14:36:21;;;;;;;13.32;5.13;;;;;;;;;;4993773;28;20556;-57